Time;durP1;ratioP1;P1;durP2;ratioP2;P2;SDS_P1;SDS_P2;PMS_P1;PMS_P2;Temp;Humidity;BMP_temperature;BMP_pressure;BME280_temperature;BME280_humidity;BME280_pressure;Samples;Min_cycle;Max_cycle;Signal;HPM_P1;HPM_P2
2021/11/26 00:00:59;;;;;;;2.40;1.17;;;5.60;99.90;;;;;;5040986;28;20214;-80
2021/11/26 00:03:26;;;;;;;2.53;1.17;;;5.60;99.90;;;;;;5040575;28;20234;-79
2021/11/26 00:05:54;;;;;;;2.40;1.00;;;5.60;99.90;;;;;;5039321;28;20231;-80
2021/11/26 00:08:29;;;;;;;5.53;1.43;;;5.60;99.90;;;;;;5040642;28;20211;-80
2021/11/26 00:10:56;;;;;;;1.83;1.03;;;5.60;99.90;;;;;;5041345;28;20642;-81
2021/11/26 00:13:29;;;;;;;3.00;1.10;;;5.60;99.90;;;;;;5033860;28;20230;-80
2021/11/26 00:16:03;;;;;;;3.70;1.13;;;5.60;99.90;;;;;;5018940;28;20255;-80
2021/11/26 00:18:31;;;;;;;2.80;1.10;;;5.60;99.90;;;;;;5019106;28;20219;-79
2021/11/26 00:21:06;;;;;;;2.70;1.40;;;5.60;99.90;;;;;;5020470;28;20208;-80
2021/11/26 00:23:33;;;;;;;1.20;0.73;;;5.60;99.90;;;;;;5018900;28;20202;-79
2021/11/26 00:26:02;;;;;;;5.30;1.10;;;5.60;99.90;;;;;;5019056;28;20235;-80
2021/11/26 00:28:30;;;;;;;5.50;1.45;;;5.60;99.90;;;;;;5019642;28;20440;-79
2021/11/26 00:30:58;;;;;;;5.03;1.30;;;5.70;99.90;;;;;;5020812;28;20207;-81
2021/11/26 00:33:27;;;;;;;1.80;1.10;;;5.70;99.90;;;;;;5020604;28;20203;-79
2021/11/26 00:35:58;;;;;;;6.83;1.37;;;5.60;99.90;;;;;;5020630;28;20208;-80
2021/11/26 00:38:28;;;;;;;3.17;1.17;;;5.60;99.90;;;;;;5020028;28;20208;-80
2021/11/26 00:40:56;;;;;;;2.97;1.40;;;5.60;99.90;;;;;;5020628;28;20211;-80
2021/11/26 00:43:26;;;;;;;4.87;1.80;;;5.70;99.90;;;;;;5019549;28;20286;-80
2021/11/26 00:45:55;;;;;;;7.23;1.67;;;5.80;99.90;;;;;;5018467;28;20231;-80
2021/11/26 00:48:23;;;;;;;3.77;1.60;;;5.80;99.90;;;;;;5019477;28;20192;-81
2021/11/26 00:50:50;;;;;;;5.17;1.70;;;5.80;99.90;;;;;;5019080;28;20232;-80
2021/11/26 00:53:17;;;;;;;4.93;2.20;;;5.90;99.90;;;;;;5017552;28;20287;-80
2021/11/26 00:55:46;;;;;;;2.73;1.50;;;6.00;99.90;;;;;;5019369;28;20589;-81
2021/11/26 00:58:14;;;;;;;3.03;1.77;;;5.90;99.90;;;;;;5017412;28;20231;-80
2021/11/26 01:00:41;;;;;;;6.27;2.03;;;6.00;99.90;;;;;;5019720;28;20282;-80
2021/11/26 01:03:14;;;;;;;5.22;2.42;;;6.00;99.90;;;;;;5018656;28;20857;-80
2021/11/26 01:05:43;;;;;;;5.20;1.83;;;6.00;99.90;;;;;;5020457;28;20712;-80
2021/11/26 01:08:13;;;;;;;5.40;1.70;;;6.00;99.90;;;;;;5020194;28;20192;-80
2021/11/26 01:10:41;;;;;;;5.43;1.90;;;6.10;99.90;;;;;;5021215;28;20666;-80
2021/11/26 01:13:11;;;;;;;5.00;1.83;;;6.10;99.90;;;;;;5023787;28;20196;-80
2021/11/26 01:15:40;;;;;;;6.17;2.00;;;6.10;99.90;;;;;;5041928;28;20210;-80
2021/11/26 01:18:07;;;;;;;5.63;2.60;;;6.20;99.90;;;;;;5041409;28;20203;-80
2021/11/26 01:20:36;;;;;;;6.30;1.90;;;6.10;99.90;;;;;;5043870;28;20249;-80
2021/11/26 01:23:05;;;;;;;7.43;2.30;;;6.00;99.90;;;;;;5045406;28;20879;-80
2021/11/26 01:25:37;;;;;;;6.87;2.20;;;5.90;99.90;;;;;;5043298;28;20219;-80
2021/11/26 01:28:07;;;;;;;10.10;2.83;;;5.90;99.90;;;;;;5046630;28;20218;-80
2021/11/26 01:30:43;;;;;;;8.17;2.80;;;5.90;99.90;;;;;;5047318;28;20200;-81
2021/11/26 01:33:13;;;;;;;8.47;3.20;;;6.00;99.90;;;;;;5046230;28;20238;-80
2021/11/26 01:35:41;;;;;;;9.70;3.72;;;6.00;99.90;;;;;;5046543;28;20423;-80
2021/11/26 01:38:12;;;;;;;13.40;4.03;;;6.00;99.90;;;;;;5047579;28;20203;-82
2021/11/26 01:40:41;;;;;;;14.63;4.40;;;6.00;99.90;;;;;;5045711;28;20203;-79
2021/11/26 01:43:11;;;;;;;9.47;4.00;;;6.00;99.90;;;;;;5048544;28;20226;-80
2021/11/26 01:45:46;;;;;;;10.67;4.10;;;6.10;99.90;;;;;;5048767;28;20219;-79
2021/11/26 01:48:15;;;;;;;11.07;4.23;;;6.00;99.90;;;;;;5048114;28;20206;-80
2021/11/26 01:50:45;;;;;;;12.37;4.63;;;5.90;99.90;;;;;;5047401;28;20234;-79
2021/11/26 01:53:18;;;;;;;15.33;4.73;;;5.80;99.90;;;;;;5045910;28;20202;-81
2021/11/26 01:55:47;;;;;;;11.03;4.93;;;5.80;99.90;;;;;;5046294;28;20210;-81
2021/11/26 01:58:17;;;;;;;11.20;4.33;;;5.70;99.90;;;;;;5045829;28;20535;-80
2021/11/26 02:00:47;;;;;;;20.10;5.03;;;5.70;99.90;;;;;;5045884;28;20194;-79
2021/11/26 02:03:15;;;;;;;21.87;4.70;;;5.60;99.90;;;;;;5028398;28;20211;-81
2021/11/26 02:05:46;;;;;;;14.30;5.20;;;5.60;99.90;;;;;;5025414;28;20227;-80
2021/11/26 02:08:15;;;;;;;20.93;4.90;;;5.60;99.90;;;;;;5021836;28;20200;-80
2021/11/26 02:10:44;;;;;;;10.20;4.60;;;5.60;99.90;;;;;;5023526;28;20200;-80
2021/11/26 02:13:12;;;;;;;11.93;5.20;;;5.60;99.90;;;;;;5023067;28;20573;-81
2021/11/26 02:15:42;;;;;;;11.63;4.23;;;5.60;99.90;;;;;;5023840;28;20284;-80
2021/11/26 02:18:15;;;;;;;10.37;4.70;;;5.60;99.90;;;;;;5023231;28;20238;-80
2021/11/26 02:20:52;;;;;;;20.30;5.13;;;5.60;99.90;;;;;;5022902;28;20198;-81
2021/11/26 02:23:19;;;;;;;16.33;4.63;;;5.60;99.90;;;;;;5022283;28;20287;-81
2021/11/26 02:25:47;;;;;;;13.87;4.03;;;5.70;99.90;;;;;;5007264;28;20231;-80
2021/11/26 02:28:17;;;;;;;15.60;5.27;;;5.60;99.90;;;;;;5003395;28;20673;-81
2021/11/26 02:30:46;;;;;;;18.27;4.63;;;5.60;99.90;;;;;;5004774;28;20223;-79
2021/11/26 02:33:20;;;;;;;19.47;4.57;;;5.60;99.90;;;;;;5003417;28;20196;-80
2021/11/26 02:36:11;;;;;;;17.57;4.60;;;5.60;99.90;;;;;;5003962;28;20254;-80
2021/11/26 02:38:49;;;;;;;12.40;4.07;;;5.60;99.90;;;;;;5004353;28;20256;-81
2021/11/26 02:41:16;;;;;;;14.37;4.07;;;5.70;99.90;;;;;;5003281;28;20578;-81
2021/11/26 02:43:45;;;;;;;12.83;4.33;;;5.80;99.90;;;;;;5004231;28;20200;-80
2021/11/26 02:46:12;;;;;;;14.63;4.70;;;5.70;99.90;;;;;;5003138;28;20453;-80
2021/11/26 02:48:42;;;;;;;15.87;4.70;;;5.80;99.90;;;;;;5004843;28;20192;-80
2021/11/26 02:51:11;;;;;;;16.03;4.53;;;5.70;99.90;;;;;;5004632;28;20225;-81
2021/11/26 02:53:38;;;;;;;11.07;4.20;;;5.60;99.90;;;;;;5004544;28;20208;-81
2021/11/26 02:56:08;;;;;;;13.97;4.03;;;5.50;99.90;;;;;;5004282;28;20224;-81
2021/11/26 02:58:36;;;;;;;17.87;4.80;;;5.50;99.90;;;;;;5005762;28;20204;-81
2021/11/26 03:01:06;;;;;;;19.23;4.57;;;5.60;99.90;;;;;;5004899;28;20668;-82
2021/11/26 03:03:33;;;;;;;17.73;5.10;;;5.50;99.90;;;;;;5004408;28;20579;-81
2021/11/26 03:06:02;;;;;;;20.47;5.40;;;5.50;99.90;;;;;;5003858;28;20220;-80
2021/11/26 03:08:35;;;;;;;16.57;4.90;;;5.50;99.90;;;;;;5005144;28;20566;-80
2021/11/26 03:11:03;;;;;;;16.63;4.90;;;5.50;99.90;;;;;;5002251;28;20209;-81
2021/11/26 03:13:32;;;;;;;23.93;4.47;;;5.50;99.90;;;;;;5002683;28;20231;-81
2021/11/26 03:16:02;;;;;;;21.27;5.03;;;5.50;99.90;;;;;;5003161;28;20205;-80
2021/11/26 03:18:31;;;;;;;17.60;5.50;;;5.40;99.90;;;;;;5002722;28;20189;-80
2021/11/26 03:21:00;;;;;;;16.97;5.33;;;5.40;99.90;;;;;;5001107;28;20543;-80
2021/11/26 03:23:27;;;;;;;20.37;5.50;;;5.40;99.90;;;;;;5001569;28;20197;-81
2021/11/26 03:25:56;;;;;;;18.70;4.93;;;5.40;99.90;;;;;;5003246;28;20235;-80
2021/11/26 03:28:23;;;;;;;18.03;5.53;;;5.40;99.90;;;;;;5002180;28;20207;-81
2021/11/26 03:30:50;;;;;;;16.37;4.70;;;5.40;99.90;;;;;;5001472;28;20219;-79
2021/11/26 03:33:19;;;;;;;25.60;5.23;;;5.40;99.90;;;;;;5002038;28;20676;-80
2021/11/26 03:35:48;;;;;;;17.70;5.07;;;5.40;99.90;;;;;;5003485;28;20192;-80
2021/11/26 03:38:19;;;;;;;22.00;5.40;;;5.40;99.90;;;;;;5003130;28;20204;-80
2021/11/26 03:40:46;;;;;;;19.60;5.13;;;5.30;99.90;;;;;;5001301;28;20204;-80
2021/11/26 03:43:15;;;;;;;19.67;4.50;;;5.30;99.90;;;;;;5001862;28;20212;-81
2021/11/26 03:45:50;;;;;;;25.77;5.23;;;5.30;99.90;;;;;;5001785;28;20224;-82
2021/11/26 03:48:18;;;;;;;17.63;4.27;;;5.30;99.90;;;;;;5005559;28;20219;-79
2021/11/26 03:50:45;;;;;;;16.87;4.40;;;5.30;99.90;;;;;;5008768;28;20270;-80
2021/11/26 03:53:13;;;;;;;19.57;5.27;;;5.30;99.90;;;;;;5000741;28;20224;-81
2021/11/26 03:55:40;;;;;;;24.07;4.57;;;5.30;99.90;;;;;;5001171;28;20629;-79
2021/11/26 03:58:08;;;;;;;17.23;4.82;;;5.20;99.90;;;;;;5000040;28;20518;-79
2021/11/26 04:00:38;;;;;;;18.63;4.77;;;5.30;99.90;;;;;;5001358;28;20196;-80
2021/11/26 04:03:11;;;;;;;16.10;4.70;;;5.30;99.90;;;;;;5004295;28;20193;-80
2021/11/26 04:05:47;;;;;;;13.07;3.93;;;5.20;99.90;;;;;;5000771;28;20315;-79
2021/11/26 04:08:16;;;;;;;11.60;4.23;;;5.20;99.90;;;;;;5003164;28;20198;-79
2021/11/26 04:10:44;;;;;;;11.17;4.00;;;5.20;99.90;;;;;;5003137;28;20668;-80
2021/11/26 04:13:13;;;;;;;16.07;4.50;;;5.20;99.90;;;;;;5002707;28;20197;-80
2021/11/26 04:15:43;;;;;;;15.27;3.60;;;5.20;99.90;;;;;;5005700;28;20270;-79
2021/11/26 04:18:11;;;;;;;13.80;5.00;;;5.20;99.90;;;;;;5025585;28;20212;-81
2021/11/26 04:20:42;;;;;;;13.30;3.40;;;5.20;99.90;;;;;;5024775;28;20203;-80
2021/11/26 04:23:12;;;;;;;20.20;4.37;;;5.20;99.90;;;;;;5025431;28;20215;-81
2021/11/26 04:25:43;;;;;;;14.43;3.50;;;5.10;99.90;;;;;;5022628;28;20226;-82
2021/11/26 04:28:10;;;;;;;23.83;4.73;;;5.20;99.90;;;;;;5021512;28;20557;-80
2021/11/26 04:30:41;;;;;;;13.20;3.80;;;5.20;99.90;;;;;;5021403;28;20463;-80
2021/11/26 04:33:09;;;;;;;16.55;4.65;;;5.20;99.90;;;;;;5022516;28;20436;-80
2021/11/26 04:35:37;;;;;;;13.40;3.67;;;5.20;99.90;;;;;;5026139;28;20204;-81
2021/11/26 04:38:05;;;;;;;17.70;4.57;;;5.20;99.90;;;;;;5025020;28;20208;-80
2021/11/26 04:40:34;;;;;;;16.33;3.83;;;5.10;99.90;;;;;;5023503;28;20299;-79
2021/11/26 04:43:04;;;;;;;14.53;4.17;;;5.20;99.90;;;;;;5022784;28;20207;-80
2021/11/26 04:45:33;;;;;;;13.53;4.33;;;5.30;99.90;;;;;;5025614;28;20449;-81
2021/11/26 04:48:02;;;;;;;13.73;3.87;;;5.00;99.90;;;;;;5026307;28;20442;-80
2021/11/26 04:50:31;;;;;;;14.47;3.63;;;5.00;99.90;;;;;;5024960;28;20282;-80
2021/11/26 04:53:04;;;;;;;17.77;4.30;;;5.00;99.90;;;;;;5027631;28;20480;-81
2021/11/26 04:55:31;;;;;;;24.07;6.27;;;5.00;99.90;;;;;;5024875;28;20200;-79
2021/11/26 04:57:58;;;;;;;10.83;3.67;;;4.90;99.90;;;;;;5026051;28;20200;-80
2021/11/26 05:00:25;;;;;;;14.03;3.83;;;4.90;99.90;;;;;;5028396;28;20456;-79
2021/11/26 05:02:56;;;;;;;13.37;4.50;;;4.90;99.90;;;;;;5026004;28;20813;-80
2021/11/26 05:05:27;;;;;;;18.67;4.57;;;5.00;99.90;;;;;;5031829;28;20429;-81
2021/11/26 05:07:58;;;;;;;19.37;4.60;;;4.90;99.90;;;;;;5027526;28;20232;-83
2021/11/26 05:10:40;;;;;;;14.87;4.43;;;4.90;99.90;;;;;;5027473;28;20425;-80
2021/11/26 05:13:09;;;;;;;18.00;5.00;;;4.80;99.90;;;;;;5027525;28;20992;-81
2021/11/26 05:15:43;;;;;;;12.30;4.53;;;4.80;99.90;;;;;;5026683;28;20441;-80
2021/11/26 05:18:13;;;;;;;17.17;4.13;;;4.80;99.90;;;;;;5030565;28;20516;-79
2021/11/26 05:20:46;;;;;;;22.83;5.17;;;4.80;99.90;;;;;;5029465;28;20463;-81
2021/11/26 05:23:19;;;;;;;18.90;4.23;;;4.80;99.90;;;;;;5028460;28;20452;-80
2021/11/26 05:25:47;;;;;;;18.23;4.33;;;4.80;99.90;;;;;;5027000;28;20477;-80
2021/11/26 05:28:15;;;;;;;12.10;3.93;;;4.70;99.90;;;;;;5025558;28;20449;-81
2021/11/26 05:30:51;;;;;;;13.90;4.00;;;4.70;99.90;;;;;;5027425;28;20250;-81
2021/11/26 05:33:26;;;;;;;12.90;5.00;;;4.60;99.90;;;;;;5025273;28;20453;-80
2021/11/26 05:35:57;;;;;;;16.33;4.23;;;4.70;99.90;;;;;;5025275;28;20540;-81
2021/11/26 05:38:26;;;;;;;21.43;3.73;;;4.70;99.90;;;;;;5029181;28;20438;-81
2021/11/26 05:40:54;;;;;;;17.30;4.60;;;4.70;99.90;;;;;;5029236;28;20451;-80
2021/11/26 05:43:24;;;;;;;18.43;4.63;;;4.70;99.90;;;;;;5031038;28;20258;-81
2021/11/26 05:45:52;;;;;;;19.58;5.70;;;4.60;99.90;;;;;;5026748;28;20447;-80
2021/11/26 05:48:19;;;;;;;10.27;4.60;;;4.80;99.90;;;;;;5026142;28;20246;-83
2021/11/26 05:50:48;;;;;;;14.17;4.53;;;4.70;99.90;;;;;;5033192;28;20251;-82
2021/11/26 05:53:19;;;;;;;17.37;4.30;;;4.80;99.90;;;;;;5029515;28;20491;-80
2021/11/26 05:55:46;;;;;;;15.17;4.13;;;4.70;99.90;;;;;;5022701;28;20648;-80
2021/11/26 05:58:13;;;;;;;11.93;4.03;;;4.60;99.90;;;;;;5023782;28;20773;-80
2021/11/26 06:00:43;;;;;;;10.20;3.90;;;4.60;99.90;;;;;;5020784;28;20462;-80
2021/11/26 06:03:12;;;;;;;14.13;4.60;;;4.50;99.90;;;;;;5005561;28;20493;-80
2021/11/26 06:05:40;;;;;;;18.30;3.73;;;4.50;99.90;;;;;;5003498;28;20435;-80
2021/11/26 06:08:07;;;;;;;12.27;4.20;;;4.50;99.90;;;;;;5003683;28;20486;-80
2021/11/26 06:10:36;;;;;;;12.13;4.30;;;4.50;99.90;;;;;;5004756;28;20458;-80
2021/11/26 06:13:04;;;;;;;14.43;3.87;;;4.50;99.90;;;;;;5003568;28;20442;-80
2021/11/26 06:15:32;;;;;;;13.63;4.67;;;4.50;99.90;;;;;;5003609;28;20457;-81
2021/11/26 06:18:01;;;;;;;13.53;3.73;;;4.70;99.90;;;;;;5004257;28;20455;-80
2021/11/26 06:20:29;;;;;;;16.08;4.70;;;4.50;99.90;;;;;;5003453;28;20444;-80
2021/11/26 06:22:57;;;;;;;7.67;3.40;;;4.40;99.90;;;;;;5003756;28;20205;-80
2021/11/26 06:25:26;;;;;;;12.13;4.57;;;4.40;99.90;;;;;;5004444;28;20446;-79
2021/11/26 06:27:58;;;;;;;9.23;3.37;;;4.40;99.90;;;;;;5005089;28;20493;-80
2021/11/26 06:30:27;;;;;;;9.60;3.40;;;4.40;99.90;;;;;;5002373;28;20446;-80
2021/11/26 06:32:59;;;;;;;9.60;3.70;;;4.40;99.90;;;;;;5003020;28;20449;-80
2021/11/26 06:35:28;;;;;;;6.93;3.43;;;4.40;99.90;;;;;;5004208;28;20437;-80
2021/11/26 06:37:56;;;;;;;11.50;3.43;;;4.50;99.90;;;;;;5003625;28;20450;-80
2021/11/26 06:40:29;;;;;;;7.53;3.17;;;4.50;99.90;;;;;;5003820;28;20521;-82
2021/11/26 06:42:57;;;;;;;11.00;3.87;;;4.50;99.90;;;;;;5003331;28;20477;-80
2021/11/26 06:45:25;;;;;;;16.63;4.50;;;4.50;99.90;;;;;;5003442;28;20444;-80
2021/11/26 06:47:53;;;;;;;17.43;4.03;;;4.50;99.90;;;;;;5025856;28;20473;-81
2021/11/26 06:50:20;;;;;;;13.70;3.60;;;4.50;99.90;;;;;;5023229;28;20525;-82
2021/11/26 06:52:55;;;;;;;14.07;4.20;;;4.50;99.90;;;;;;5020729;28;20924;-81
2021/11/26 06:55:29;;;;;;;14.73;3.97;;;4.40;99.90;;;;;;5029983;28;20509;-82
2021/11/26 06:57:59;;;;;;;12.00;3.50;;;4.40;99.90;;;;;;5024957;28;20453;-80
2021/11/26 07:00:28;;;;;;;10.53;3.20;;;4.40;99.90;;;;;;5025212;28;20452;-80
2021/11/26 07:02:55;;;;;;;11.73;3.60;;;4.40;99.90;;;;;;5025473;28;20473;-81
2021/11/26 07:05:26;;;;;;;12.30;4.17;;;4.40;99.90;;;;;;5024911;28;20429;-81
2021/11/26 07:07:54;;;;;;;13.43;4.70;;;4.40;99.90;;;;;;5025018;28;20560;-80
2021/11/26 07:10:30;;;;;;;14.43;3.63;;;4.40;99.90;;;;;;5025922;28;21024;-81
2021/11/26 07:13:02;;;;;;;15.70;4.50;;;4.40;99.90;;;;;;5026133;28;20461;-80
2021/11/26 07:15:30;;;;;;;14.77;4.40;;;4.40;99.90;;;;;;5026002;28;20437;-80
2021/11/26 07:17:57;;;;;;;14.60;4.47;;;4.40;99.90;;;;;;5024750;28;20807;-81
2021/11/26 07:20:24;;;;;;;13.17;3.60;;;4.30;99.90;;;;;;5017546;28;20512;-81
2021/11/26 07:22:59;;;;;;;10.77;3.63;;;4.40;99.90;;;;;;5022074;28;20972;-80
2021/11/26 07:25:26;;;;;;;13.93;3.97;;;4.30;99.90;;;;;;5022406;28;20452;-81
2021/11/26 07:28:27;;;;;;;20.53;4.60;;;4.30;99.90;;;;;;5027228;28;20488;-84
2021/11/26 07:31:10;;;;;;;17.10;4.40;;;4.30;99.90;;;;;;5035823;28;20433;-80
2021/11/26 07:33:38;;;;;;;18.10;3.87;;;4.40;99.90;;;;;;5029209;28;20444;-81
2021/11/26 07:36:07;;;;;;;11.70;4.07;;;4.30;99.90;;;;;;5028915;28;20826;-81
2021/11/26 07:38:37;;;;;;;16.37;4.67;;;4.30;99.90;;;;;;5029158;28;20204;-82
2021/11/26 07:41:09;;;;;;;20.43;4.97;;;4.30;99.90;;;;;;5026498;28;20454;-81
2021/11/26 07:43:41;;;;;;;19.10;4.27;;;4.20;99.90;;;;;;5027894;28;20453;-82
2021/11/26 07:46:09;;;;;;;12.33;4.10;;;4.30;99.90;;;;;;5027919;28;20462;-82
2021/11/26 07:48:41;;;;;;;11.97;3.57;;;4.30;99.90;;;;;;5029321;28;20512;-82
2021/11/26 07:51:11;;;;;;;12.77;3.90;;;4.40;99.90;;;;;;5027798;28;20492;-82
2021/11/26 07:53:42;;;;;;;13.00;4.00;;;4.30;99.90;;;;;;5027282;28;20437;-82
2021/11/26 07:56:10;;;;;;;9.63;3.80;;;4.40;99.90;;;;;;5027575;28;20465;-82
2021/11/26 07:58:40;;;;;;;22.17;5.27;;;4.30;99.90;;;;;;5026790;28;20537;-79
2021/11/26 08:01:14;;;;;;;18.07;5.10;;;4.30;99.90;;;;;;5027191;28;20463;-81
2021/11/26 08:03:45;;;;;;;17.03;4.63;;;4.20;99.90;;;;;;5027761;28;20537;-81
2021/11/26 08:06:21;;;;;;;24.80;5.27;;;4.30;99.90;;;;;;5029700;28;20445;-81
2021/11/26 08:08:49;;;;;;;18.13;5.00;;;4.30;99.90;;;;;;5028906;28;20512;-81
2021/11/26 08:17:22;;;;;;;18.10;4.87;;;4.40;99.90;;;;;;5282998;23;20487;-81
2021/11/26 08:19:49;;;;;;;14.83;5.10;;;4.40;99.90;;;;;;5060063;28;20431;-80
2021/11/26 08:22:17;;;;;;;16.53;5.40;;;4.40;99.90;;;;;;5057874;28;20443;-80
2021/11/26 08:24:44;;;;;;;16.50;5.20;;;4.30;99.90;;;;;;5060110;28;20526;-80
2021/11/26 08:27:11;;;;;;;23.00;5.37;;;4.40;99.90;;;;;;5059698;28;20978;-80
2021/11/26 08:29:39;;;;;;;17.93;6.07;;;4.50;99.90;;;;;;5057753;28;20444;-80
2021/11/26 08:32:06;;;;;;;18.10;4.90;;;4.50;99.90;;;;;;5059646;28;20937;-80
2021/11/26 08:34:35;;;;;;;13.23;4.57;;;4.40;99.90;;;;;;5059539;28;20457;-80
2021/11/26 08:37:01;;;;;;;21.50;5.33;;;4.50;99.90;;;;;;5063877;28;20450;-78
2021/11/26 08:39:37;;;;;;;12.53;4.83;;;4.50;99.90;;;;;;5067528;28;20439;-80
2021/11/26 08:42:11;;;;;;;18.13;4.83;;;4.60;99.90;;;;;;5074616;28;20486;-78
2021/11/26 08:44:38;;;;;;;15.67;4.77;;;4.60;99.90;;;;;;5037071;28;20930;-77
2021/11/26 08:47:11;;;;;;;17.58;5.72;;;4.70;99.90;;;;;;5035303;28;20455;-84
2021/11/26 08:49:40;;;;;;;12.83;4.73;;;4.80;99.90;;;;;;5041579;28;20238;-80
2021/11/26 08:52:07;;;;;;;12.50;4.67;;;4.80;99.90;;;;;;5042530;28;20215;-81
2021/11/26 08:54:36;;;;;;;13.03;4.50;;;4.80;99.90;;;;;;5042848;28;20234;-80
2021/11/26 08:57:08;;;;;;;11.87;4.37;;;4.70;99.90;;;;;;5043318;28;20526;-81
2021/11/26 08:59:40;;;;;;;12.60;4.53;;;4.70;99.90;;;;;;5042440;28;20462;-80
2021/11/26 09:02:08;;;;;;;14.07;4.40;;;4.80;99.90;;;;;;5045369;28;20209;-81
2021/11/26 09:04:35;;;;;;;15.13;4.30;;;4.80;99.90;;;;;;5042193;28;20556;-79
2021/11/26 09:07:33;;;;;;;15.87;4.00;;;4.80;99.90;;;;;;5049794;28;20444;-79
2021/11/26 09:10:14;;;;;;;13.67;4.03;;;4.70;99.90;;;;;;5050738;28;20481;-80
2021/11/26 09:12:58;;;;;;;14.00;3.90;;;4.70;99.90;;;;;;5034054;28;20425;-79
2021/11/26 09:15:29;;;;;;;11.33;4.10;;;4.70;99.90;;;;;;5039309;28;20524;-80
2021/11/26 09:17:58;;;;;;;14.83;4.37;;;4.80;99.90;;;;;;5028723;28;20504;-80
2021/11/26 09:20:29;;;;;;;13.43;3.97;;;4.90;99.90;;;;;;5029267;28;20440;-81
2021/11/26 09:23:00;;;;;;;9.27;3.80;;;4.90;99.90;;;;;;5037520;28;20464;-82
2021/11/26 09:25:28;;;;;;;14.83;4.87;;;4.90;99.90;;;;;;5036664;28;20511;-80
2021/11/26 09:27:56;;;;;;;13.73;4.07;;;4.80;99.90;;;;;;5040672;28;20476;-80
2021/11/26 09:30:28;;;;;;;11.70;4.10;;;4.90;99.90;;;;;;5030582;28;20429;-80
2021/11/26 09:32:55;;;;;;;11.10;4.00;;;4.90;99.90;;;;;;5038996;28;20272;-80
2021/11/26 09:35:25;;;;;;;14.00;4.20;;;5.00;99.90;;;;;;5030715;28;20442;-81
2021/11/26 09:38:07;;;;;;;13.90;4.40;;;5.00;99.90;;;;;;5039170;28;20432;-81
2021/11/26 09:40:35;;;;;;;12.80;4.63;;;5.00;99.90;;;;;;5039463;28;20274;-80
2021/11/26 09:43:05;;;;;;;9.27;4.60;;;5.00;99.90;;;;;;5033746;28;20517;-80
2021/11/26 09:45:33;;;;;;;12.93;4.27;;;5.00;99.90;;;;;;5035975;28;20746;-79
2021/11/26 09:48:03;;;;;;;12.70;3.80;;;5.00;99.90;;;;;;5034111;28;20282;-81
2021/11/26 09:53:35;;;;;;;14.87;4.07;;;5.00;99.90;;;;;;5041139;28;20207;-79
2021/11/26 09:56:12;;;;;;;10.07;3.83;;;5.00;99.90;;;;;;5035204;28;20203;-81
2021/11/26 09:58:41;;;;;;;11.70;3.42;;;5.00;99.90;;;;;;5043947;28;20506;-79
2021/11/26 10:01:12;;;;;;;12.97;3.87;;;5.00;99.90;;;;;;5037373;28;20203;-79
2021/11/26 10:06:37;;;;;;;14.50;4.00;;;5.00;99.90;;;;;;5050401;28;20433;-80
2021/11/26 10:09:11;;;;;;;8.60;3.73;;;5.00;99.90;;;;;;5044416;28;20492;-80
2021/11/26 10:12:35;;;;;;;18.90;4.80;;;5.00;99.90;;;;;;5054780;28;20167;-82
2021/11/26 10:15:02;;;;;;;8.77;3.90;;;4.90;99.90;;;;;;4983377;28;20476;-82
2021/11/26 10:17:29;;;;;;;10.27;3.90;;;4.90;99.90;;;;;;5027137;28;20453;-77
2021/11/26 10:20:55;;;;;;;14.67;4.00;;;4.90;99.90;;;;;;5031350;28;20439;-84
2021/11/26 10:26:24;;;;;;;10.97;3.97;;;5.00;99.90;;;;;;5035471;28;20429;-83
2021/11/26 10:29:13;;;;;;;9.07;3.67;;;5.00;99.90;;;;;;5034852;28;20237;-84
2021/11/26 10:31:44;;;;;;;10.40;3.80;;;5.00;99.90;;;;;;5048617;28;20434;-83
2021/11/26 10:34:21;;;;;;;7.43;3.30;;;5.00;99.90;;;;;;5055978;28;20202;-84
2021/11/26 10:36:52;;;;;;;11.80;3.83;;;5.00;99.90;;;;;;5054391;28;20255;-79
2021/11/26 10:39:43;;;;;;;16.47;4.67;;;4.90;99.90;;;;;;5036458;28;20936;-85
2021/11/26 10:59:09;;;;;;;8.07;3.30;;;4.90;99.90;;;;;;5031852;28;20524;-84
2021/11/26 11:01:52;;;;;;;11.00;4.13;;;4.90;99.90;;;;;;5036070;28;20460;-85
2021/11/26 11:07:18;;;;;;;12.70;4.10;;;5.00;99.90;;;;;;5034411;28;20468;-84
2021/11/26 11:09:59;;;;;;;9.03;4.10;;;5.00;99.90;;;;;;5035696;28;20497;-83
2021/11/26 11:12:46;;;;;;;9.40;3.63;;;4.90;99.90;;;;;;5034473;28;20442;-84
2021/11/26 11:21:22;;;;;;;11.23;4.13;;;4.90;99.90;;;;;;5036040;28;20449;-84
2021/11/26 11:27:17;;;;;;;10.67;3.47;;;5.00;99.90;;;;;;5033765;28;20509;-83
2021/11/26 11:29:48;;;;;;;7.87;3.87;;;5.10;99.90;;;;;;5005037;28;20481;-80
2021/11/26 11:32:18;;;;;;;8.87;4.17;;;5.00;99.90;;;;;;5011009;28;20841;-80
2021/11/26 11:34:50;;;;;;;8.73;4.10;;;4.90;99.90;;;;;;5018707;28;20450;-80
2021/11/26 11:37:25;;;;;;;7.13;3.63;;;5.00;99.90;;;;;;5024370;28;20445;-80
2021/11/26 11:39:54;;;;;;;8.00;3.77;;;4.90;99.90;;;;;;5008566;28;20212;-80
2021/11/26 11:42:36;;;;;;;12.20;4.10;;;4.90;99.90;;;;;;5006487;28;20434;-80
2021/11/26 11:45:27;;;;;;;13.43;4.70;;;4.90;99.90;;;;;;5009690;28;20418;-82
2021/11/26 11:48:15;;;;;;;12.10;4.10;;;4.90;99.90;;;;;;5007912;28;20492;-80
2021/11/26 11:50:48;;;;;;;6.90;4.10;;;5.00;99.90;;;;;;5007682;28;20557;-81
2021/11/26 11:53:32;;;;;;;10.50;4.20;;;5.00;99.90;;;;;;4990778;28;20202;-80
2021/11/26 11:59:53;;;;;;;12.13;4.00;;;4.90;99.90;;;;;;5013497;28;20431;-86
2021/11/26 12:19:24;;;;;;;12.60;4.57;;;4.90;99.90;;;;;;5033424;28;20271;-86
2021/11/26 12:41:46;;;;;;;11.57;4.93;;;5.10;99.90;;;;;;5033442;28;20768;-86
2021/11/26 12:54:12;;;;;;;8.93;4.73;;;5.10;99.90;;;;;;5006921;28;20452;-85
2021/11/26 12:57:08;;;;;;;6.67;4.47;;;5.20;99.90;;;;;;5033657;28;20200;-85
2021/11/26 13:06:40;;;;;;;10.30;4.60;;;5.20;99.90;;;;;;5035411;28;20476;-86
2021/11/26 13:12:26;;;;;;;6.53;4.60;;;5.40;99.90;;;;;;5039803;28;20223;-86
2021/11/26 13:30:23;;;;;;;10.27;3.47;;;5.50;99.90;;;;;;5019896;28;20235;-86
2021/11/26 13:54:26;;;;;;;8.77;3.80;;;5.40;99.90;;;;;;4997909;28;20209;-85
2021/11/26 14:10:00;;;;;;;5.67;3.07;;;5.40;99.90;;;;;;5155118;23;20469;-85
2021/11/26 14:22:49;;;;;;;3.10;2.67;;;5.30;99.90;;;;;;5018692;28;20426;-87
2021/11/26 14:26:15;;;;;;;6.13;2.63;;;5.30;99.90;;;;;;5019805;28;20188;-86
2021/11/26 14:29:22;;;;;;;4.10;2.77;;;5.30;99.90;;;;;;5014436;28;20239;-88
2021/11/26 14:42:06;;;;;;;8.00;2.70;;;5.40;99.90;;;;;;5018973;28;20418;-86
2021/11/26 15:06:56;;;;;;;3.83;2.37;;;5.40;99.90;;;;;;4997951;28;20307;-86
2021/11/26 15:12:28;;;;;;;11.03;2.67;;;5.40;99.90;;;;;;5013588;28;20212;-85
2021/11/26 15:19:02;;;;;;;9.30;3.20;;;5.40;99.90;;;;;;5012919;28;20212;-85
2021/11/26 15:24:36;;;;;;;4.13;3.00;;;5.50;99.90;;;;;;5017065;28;20435;-86
2021/11/26 15:34:21;;;;;;;6.00;3.47;;;5.60;99.90;;;;;;5015017;28;20200;-86
2021/11/26 15:37:26;;;;;;;3.00;2.80;;;5.60;99.90;;;;;;5014347;28;20193;-85
2021/11/26 15:40:10;;;;;;;5.03;3.13;;;5.60;99.90;;;;;;5014385;28;20203;-86
2021/11/26 15:43:15;;;;;;;5.83;2.83;;;5.60;99.90;;;;;;5014126;28;20188;-86
2021/11/26 15:45:47;;;;;;;7.30;2.80;;;5.60;99.90;;;;;;5014267;28;20235;-86
2021/11/26 15:55:16;;;;;;;5.00;3.00;;;5.60;99.90;;;;;;5017067;28;20203;-88
2021/11/26 16:00:34;;;;;;;5.30;2.63;;;5.50;99.90;;;;;;4999255;28;20203;-79
2021/11/26 16:07:04;;;;;;;4.93;3.20;;;5.60;99.90;;;;;;5015877;28;20418;-87
2021/11/26 16:16:10;;;;;;;5.73;2.97;;;5.60;99.90;;;;;;5035330;28;20188;-86
2021/11/26 16:21:55;;;;;;;7.77;3.50;;;5.60;99.90;;;;;;5008087;28;20203;-86
2021/11/26 16:27:57;;;;;;;5.53;3.43;;;5.70;99.90;;;;;;5037104;28;20196;-85
2021/11/26 16:34:40;;;;;;;6.53;3.40;;;5.70;99.90;;;;;;5018514;28;20234;-85
2021/11/26 16:37:36;;;;;;;5.43;3.13;;;5.70;99.90;;;;;;5029440;28;20205;-84
2021/11/26 16:40:58;;;;;;;5.10;3.90;;;5.80;99.90;;;;;;5017841;28;20219;-87
2021/11/26 17:01:43;;;;;;;7.87;4.20;;;5.80;99.90;;;;;;2330598;23;20290;-82
2021/11/26 17:07:18;;;;;;;8.47;5.23;;;5.80;99.90;;;;;;5017226;28;20189;-85
2021/11/26 17:09:48;;;;;;;4.50;4.17;;;5.80;99.90;;;;;;5018306;28;20271;-84
2021/11/26 17:12:24;;;;;;;4.93;4.50;;;5.90;99.90;;;;;;5009165;28;20236;-84
2021/11/26 17:14:55;;;;;;;7.57;4.80;;;5.90;99.90;;;;;;5016352;28;20203;-80
2021/11/26 17:17:29;;;;;;;6.50;4.80;;;5.90;99.90;;;;;;5010438;28;20197;-81
2021/11/26 17:19:56;;;;;;;5.70;4.73;;;5.90;99.90;;;;;;5008663;28;20229;-83
2021/11/26 17:22:26;;;;;;;6.37;5.77;;;5.90;99.90;;;;;;5013039;28;20215;-82
2021/11/26 17:24:56;;;;;;;5.70;5.30;;;5.80;99.90;;;;;;5008475;28;20221;-84
2021/11/26 17:27:24;;;;;;;10.37;6.37;;;5.90;99.90;;;;;;4993780;28;20232;-85
2021/11/26 17:29:51;;;;;;;6.27;5.67;;;5.90;99.90;;;;;;5001380;28;20315;-83
2021/11/26 17:32:26;;;;;;;6.83;6.03;;;5.90;99.90;;;;;;4991238;28;20265;-83
2021/11/26 17:34:54;;;;;;;8.60;7.70;;;5.90;99.90;;;;;;4989863;28;20665;-82
2021/11/26 17:37:22;;;;;;;12.43;8.70;;;5.90;99.90;;;;;;4970457;28;20224;-81
2021/11/26 17:39:50;;;;;;;11.43;8.67;;;6.00;99.90;;;;;;5007506;28;20209;-82
2021/11/26 17:42:26;;;;;;;13.03;9.53;;;6.00;99.90;;;;;;5009162;28;20303;-82